St. George Municipal Airport

Airport
ICAO code: 
KSGU
Summary
ICAO Region: 
NAM
Territory: 
Location: 
St. George, Utah,
Coordinates: 
Aerial View: 
37° 2' 14.852" N, 113° 30' 13.308" W
Airport WX: 
Mountain Waves
Metar
Observation
KSGU 020856Z AUTO 00000KT 10SM CLR 07/M08 A3025 RMK AO2 SLP234 T00721078 58002
Station
St George, St George Municipal Airport
Date/Time
2021-12-02 08:56:00
Wind direction
Wind speed
00 kts
Lowest cloud amount
n/a
Temperature
7.2°C
Dew point
-7.8°C
Humidity
33%
Weather condition
n/a

Description

St. George Municipal Airport is a public use airport located 9 km southeast of the central business district of St. George, a city in Washington County, Utah.

Climatology

Hot Desert Climate (Köppen climate classification BWh) - Hot desert climates are typically found in the subtropics where there is unbroken sunshine for the whole year due to the stable descending air and high pressure, little or no precipitation. Maximum temperatures of 40°C to 45°C are not uncommon, particularly during the warmer months of the year. During colder periods of the year, night-time temperatures can drop to freezing or below due to the exceptional radiation loss under the clear skies. However, very rarely do temperatures drop far below freezing.

Runways

Designator Length Width Surface Rops
16/34 2014 30 ASP Yes/Yes
Airport map: 
Aerial View: 

SKYbrary Partners:

Safety knowledge contributed by: